Time;durP1;ratioP1;P1;durP2;ratioP2;P2;SDS_P1;SDS_P2;PMS_P1;PMS_P2;Temp;Humidity;BMP_temperature;BMP_pressure;BME280_temperature;BME280_humidity;BME280_pressure;Samples;Min_cycle;Max_cycle;Signal;HPM_P1;HPM_P2
2022/09/16 00:00:16;;;;;;;5.03;3.40;;;13.50;99.90;;;13.04;100.00;96723.19;4965562;28;20034;-39
2022/09/16 00:02:42;;;;;;;5.55;3.40;;;13.50;99.90;;;13.03;100.00;96719.69;4969682;28;20281;-39
2022/09/16 00:05:08;;;;;;;4.85;3.10;;;13.50;99.90;;;13.02;100.00;96710.03;4965037;28;20035;-39
2022/09/16 00:07:34;;;;;;;4.13;3.03;;;13.50;99.90;;;12.88;100.00;96688.78;4954583;28;20022;-39
2022/09/16 00:10:00;;;;;;;4.78;3.33;;;13.40;99.90;;;12.97;100.00;96715.59;4961260;28;20034;-39
2022/09/16 00:12:26;;;;;;;6.85;3.50;;;13.40;99.90;;;12.94;100.00;96709.63;4972942;28;20518;-39
2022/09/16 00:14:53;;;;;;;5.88;2.95;;;13.40;99.90;;;12.95;100.00;96704.22;4964984;28;20113;-39
2022/09/16 00:17:19;;;;;;;5.13;3.15;;;13.40;99.90;;;12.90;100.00;96708.09;4973433;28;20034;-39
2022/09/16 00:19:45;;;;;;;6.57;3.10;;;13.40;99.90;;;12.89;100.00;96711.69;4978081;28;20489;-39
2022/09/16 00:22:11;;;;;;;4.55;3.13;;;13.30;99.90;;;12.81;100.00;96704.16;4976075;28;20156;-39
2022/09/16 00:24:37;;;;;;;8.23;3.58;;;13.30;99.90;;;12.75;100.00;96708.00;4977463;28;20038;-39
2022/09/16 00:27:03;;;;;;;9.55;3.55;;;13.20;99.90;;;12.68;100.00;96705.81;4971736;28;20042;-39
2022/09/16 00:29:28;;;;;;;6.60;4.00;;;13.20;99.90;;;12.67;100.00;96715.56;4969883;28;20062;-39
2022/09/16 00:31:54;;;;;;;7.05;3.30;;;13.10;99.90;;;12.56;100.00;96707.34;4972197;28;20463;-39
2022/09/16 00:34:20;;;;;;;8.20;3.42;;;13.00;99.90;;;12.46;100.00;96700.88;4978011;28;20031;-39
2022/09/16 00:36:45;;;;;;;6.22;4.07;;;12.90;99.90;;;12.35;100.00;96704.97;4972121;28;20041;-40
2022/09/16 00:39:11;;;;;;;10.25;3.92;;;12.80;99.90;;;12.28;100.00;96708.03;4972802;28;20395;-39
2022/09/16 00:41:37;;;;;;;10.52;4.05;;;12.70;99.90;;;12.25;100.00;96710.84;4970978;28;20158;-39
2022/09/16 00:44:26;;;;;;;11.60;4.75;;;12.70;99.90;;;12.22;100.00;96704.78;4966960;28;20308;-40
2022/09/16 00:46:53;;;;;;;6.65;4.30;;;12.70;99.90;;;12.24;100.00;96702.06;4971800;28;20150;-39
2022/09/16 00:49:29;;;;;;;11.93;4.90;;;12.70;99.90;;;12.25;100.00;96705.56;4955629;28;20097;-39
2022/09/16 00:52:00;;;;;;;6.93;4.80;;;12.70;99.90;;;12.29;100.00;96713.25;4953773;28;20045;-39
2022/09/16 00:54:27;;;;;;;7.95;5.45;;;12.80;99.90;;;12.32;100.00;96714.84;4957210;28;20026;-39
2022/09/16 00:56:54;;;;;;;10.25;4.72;;;12.80;99.90;;;12.33;100.00;96713.94;4973623;28;20045;-39
2022/09/16 00:59:28;;;;;;;6.35;4.55;;;12.80;99.90;;;12.37;100.00;96718.09;4952062;28;20030;-39
2022/09/16 01:01:57;;;;;;;7.95;4.55;;;12.90;99.90;;;12.39;100.00;96710.94;4971141;28;20124;-39
2022/09/16 01:04:36;;;;;;;8.43;4.50;;;12.90;99.90;;;12.40;100.00;96713.50;4950136;28;20510;-39
2022/09/16 01:07:02;;;;;;;10.20;4.18;;;12.90;99.90;;;12.42;100.00;96708.13;4967989;28;20046;-39
2022/09/16 01:09:29;;;;;;;9.60;5.00;;;12.90;99.90;;;12.38;100.00;96703.94;4970255;28;20778;-39
2022/09/16 01:11:55;;;;;;;6.60;4.60;;;12.90;99.90;;;12.41;100.00;96712.53;4954917;28;20156;-39
2022/09/16 01:17:42;;;;;;;8.63;4.72;;;12.90;99.90;;;12.48;100.00;96709.59;4965270;28;20096;-39
2022/09/16 01:20:43;;;;;;;6.45;4.55;;;13.00;99.90;;;12.51;100.00;96704.97;4968389;28;20092;-39
2022/09/16 01:23:51;;;;;;;7.28;4.63;;;13.00;99.90;;;12.57;100.00;96709.91;4948352;28;20326;-39
2022/09/16 01:26:48;;;;;;;8.25;4.10;;;13.10;99.90;;;12.59;100.00;96707.19;4971660;28;20035;-39
2022/09/16 01:29:45;;;;;;;6.22;4.47;;;13.10;99.90;;;12.59;100.00;96712.47;4958000;28;20281;-39
2022/09/16 01:32:18;;;;;;;6.57;4.40;;;13.10;99.90;;;12.58;100.00;96716.06;4971717;28;20457;-39
2022/09/16 01:35:13;;;;;;;8.43;4.88;;;13.00;99.90;;;12.49;100.00;96714.78;4973981;28;20126;-39
2022/09/16 01:38:20;;;;;;;5.05;4.00;;;13.00;99.90;;;12.42;100.00;96708.13;4971198;28;20038;-39
2022/09/16 01:41:22;;;;;;;7.05;5.05;;;12.90;99.90;;;12.32;100.00;96709.56;4964798;28;20550;-39
2022/09/16 01:44:13;;;;;;;7.78;5.15;;;12.80;99.90;;;12.20;100.00;96717.25;4966519;28;20211;-39
2022/09/16 01:46:47;;;;;;;12.27;5.25;;;12.70;99.90;;;12.12;100.00;96713.31;4968115;28;20122;-39
2022/09/16 01:49:37;;;;;;;9.75;5.05;;;12.70;99.90;;;12.07;100.00;96713.53;4952352;28;20112;-39
2022/09/16 01:52:19;;;;;;;9.30;5.32;;;12.60;99.90;;;11.98;100.00;96709.59;4966700;28;20553;-39
2022/09/16 01:54:55;;;;;;;10.50;5.07;;;12.50;99.90;;;11.94;100.00;96705.41;4946766;28;20026;-39
2022/09/16 01:57:45;;;;;;;12.82;5.25;;;12.50;99.90;;;11.92;100.00;96703.81;4951205;28;20121;-39
2022/09/16 02:00:13;;;;;;;14.98;5.68;;;12.40;99.90;;;11.93;100.00;96705.50;4947654;28;20097;-39
2022/09/16 02:02:55;;;;;;;9.02;5.45;;;12.40;99.90;;;11.92;100.00;96707.31;4953777;28;21490;-39
2022/09/16 02:05:31;;;;;;;7.38;4.97;;;12.40;99.90;;;11.88;100.00;96708.38;4952244;28;20106;-39
2022/09/16 02:08:08;;;;;;;7.50;4.45;;;12.40;99.90;;;11.85;100.00;96708.53;4967227;28;20034;-39
2022/09/16 02:10:41;;;;;;;5.85;4.88;;;12.40;99.90;;;11.83;100.00;96711.25;4949889;28;20031;-39
2022/09/16 02:13:25;;;;;;;8.45;5.18;;;12.30;99.90;;;11.79;100.00;96700.91;4953403;28;20545;-38
2022/09/16 02:15:53;;;;;;;8.40;4.68;;;12.30;99.90;;;11.77;100.00;96701.03;4969881;28;20042;-39
2022/09/16 02:18:26;;;;;;;7.88;5.00;;;12.30;99.90;;;11.73;100.00;96694.16;4953204;28;20038;-38
2022/09/16 02:20:55;;;;;;;12.10;4.72;;;12.30;99.90;;;11.67;100.00;96683.94;4954485;28;20113;-39
2022/09/16 02:23:26;;;;;;;11.98;4.35;;;12.20;99.90;;;11.57;100.00;96677.44;4947132;28;20038;-38
2022/09/16 02:25:53;;;;;;;6.70;4.07;;;12.10;99.90;;;11.57;100.00;96691.47;4950284;28;20039;-38
2022/09/16 02:28:27;;;;;;;6.05;3.80;;;12.10;99.90;;;11.56;100.00;96697.69;4952892;28;20430;-39
2022/09/16 02:30:57;;;;;;;6.97;4.30;;;12.10;99.90;;;11.54;100.00;96694.28;4951398;28;20437;-39
2022/09/16 02:33:36;;;;;;;6.18;3.60;;;12.10;99.90;;;11.51;100.00;96699.72;4943416;28;20035;-39
2022/09/16 02:36:04;;;;;;;8.18;3.97;;;12.00;99.90;;;11.45;100.00;96692.97;4959626;28;20097;-39
2022/09/16 02:38:37;;;;;;;7.97;3.80;;;12.00;99.90;;;11.37;100.00;96700.44;4949889;28;20031;-38
2022/09/16 02:41:03;;;;;;;7.00;3.88;;;11.90;99.90;;;11.34;100.00;96705.00;4966004;28;20129;-38
2022/09/16 02:43:30;;;;;;;5.03;3.50;;;11.90;99.90;;;11.32;100.00;96709.53;4947148;28;20034;-38
2022/09/16 02:46:21;;;;;;;5.97;3.75;;;11.90;99.90;;;11.30;100.00;96706.94;4970039;28;20121;-39
2022/09/16 02:48:55;;;;;;;9.27;3.83;;;11.90;99.90;;;11.27;100.00;96715.06;4964653;23;20080;-39
2022/09/16 02:51:34;;;;;;;6.10;3.50;;;11.80;99.90;;;11.26;100.00;96711.53;4985589;28;20148;-41
2022/09/16 02:54:17;;;;;;;5.93;3.17;;;11.80;99.90;;;11.23;100.00;96710.84;4983995;28;20393;-41
2022/09/16 02:56:43;;;;;;;6.85;3.25;;;11.70;99.90;;;11.16;100.00;96707.69;4986474;28;20068;-41
2022/09/16 02:59:11;;;;;;;7.20;3.10;;;11.70;99.90;;;11.14;100.00;96700.75;4977088;28;20019;-39
2022/09/16 03:01:45;;;;;;;10.77;3.22;;;11.70;99.90;;;11.07;100.00;96705.47;4948597;28;20057;-39
2022/09/16 03:04:15;;;;;;;8.63;3.65;;;11.60;99.90;;;11.04;100.00;96705.66;4969073;28;20030;-39
2022/09/16 03:06:41;;;;;;;5.07;3.10;;;11.60;99.90;;;11.01;100.00;96695.25;4953505;28;20060;-39
2022/09/16 03:09:13;;;;;;;5.90;3.55;;;11.50;99.90;;;11.04;100.00;96697.72;4968726;28;20560;-39
2022/09/16 03:11:58;;;;;;;5.93;3.17;;;11.50;99.90;;;11.05;100.00;96694.16;4972323;28;20122;-39
2022/09/16 03:15:02;;;;;;;6.05;3.47;;;11.60;99.90;;;11.11;100.00;96696.50;4947294;28;20486;-39
2022/09/16 03:18:23;;;;;;;6.47;3.50;;;11.60;99.90;;;11.16;100.00;96697.13;4965778;28;20122;-39
2022/09/16 03:21:29;;;;;;;5.80;2.83;;;11.70;99.90;;;11.23;100.00;96695.00;4969646;28;20074;-39
2022/09/16 03:24:22;;;;;;;6.80;3.20;;;11.70;99.90;;;11.28;100.00;96696.47;4968943;28;20034;-39
2022/09/16 03:27:09;;;;;;;5.70;3.20;;;11.80;99.90;;;11.34;100.00;96695.31;4967899;28;20043;-39
2022/09/16 03:30:03;;;;;;;7.68;3.15;;;11.80;99.90;;;11.39;100.00;96690.63;4952852;28;20061;-39
2022/09/16 03:32:48;;;;;;;6.63;2.80;;;11.90;99.90;;;11.44;100.00;96688.63;4952250;28;20112;-39
2022/09/16 03:35:44;;;;;;;4.20;2.70;;;12.00;99.90;;;11.51;100.00;96688.31;4952723;28;20671;-39
2022/09/16 03:38:12;;;;;;;3.78;2.35;;;12.00;99.90;;;11.57;100.00;96693.28;4966390;28;20038;-39
2022/09/16 03:40:40;;;;;;;3.30;2.38;;;12.00;99.90;;;11.59;100.00;96691.41;4955464;28;20053;-39
2022/09/16 03:43:14;;;;;;;4.43;2.58;;;12.10;99.90;;;11.60;100.00;96699.25;4973651;28;20080;-39
2022/09/16 03:45:41;;;;;;;5.57;2.28;;;12.10;99.90;;;11.64;100.00;96694.66;4969217;28;20035;-39
2022/09/16 03:48:08;;;;;;;4.25;2.40;;;12.10;99.90;;;11.68;100.00;96687.41;4975510;28;20065;-39
2022/09/16 03:50:35;;;;;;;3.90;2.30;;;12.10;99.90;;;11.72;100.00;96688.97;4972224;28;20034;-39
2022/09/16 03:53:01;;;;;;;4.15;2.63;;;12.20;99.90;;;11.73;100.00;96688.88;4960004;28;20033;-39
2022/09/16 03:55:27;;;;;;;5.03;2.30;;;12.20;99.90;;;11.78;100.00;96686.00;4973294;28;20078;-39
2022/09/16 03:57:53;;;;;;;3.08;2.17;;;12.20;99.90;;;11.78;100.00;96684.22;4971986;28;20556;-39
2022/09/16 04:00:20;;;;;;;4.07;2.22;;;12.30;99.90;;;11.81;100.00;96691.13;4972118;28;20051;-39
2022/09/16 04:02:46;;;;;;;5.55;2.40;;;12.30;99.90;;;11.84;100.00;96689.19;4969114;28;20138;-39
2022/09/16 04:05:11;;;;;;;2.42;2.03;;;12.30;99.90;;;11.87;100.00;96685.50;4975934;28;20038;-39
2022/09/16 04:07:37;;;;;;;3.22;2.00;;;12.30;99.90;;;11.90;100.00;96695.06;4975945;28;20500;-39
2022/09/16 04:10:05;;;;;;;2.47;2.00;;;12.40;99.90;;;11.95;100.00;96685.13;4972782;28;20450;-39
2022/09/16 04:12:30;;;;;;;2.75;1.92;;;12.40;99.90;;;11.96;100.00;96689.50;4970427;28;20030;-39
2022/09/16 04:14:56;;;;;;;3.22;1.83;;;12.40;99.90;;;11.93;100.00;96677.28;4974228;28;20429;-39
2022/09/16 04:17:23;;;;;;;4.13;2.17;;;12.40;99.90;;;11.98;100.00;96684.97;4969941;28;20739;-39
2022/09/16 04:19:49;;;;;;;4.28;1.98;;;12.40;99.90;;;11.98;100.00;96677.03;4969408;28;20509;-39
2022/09/16 04:22:14;;;;;;;4.03;2.15;;;12.40;99.90;;;12.00;100.00;96672.53;4964898;28;20038;-39
2022/09/16 04:24:40;;;;;;;2.25;1.95;;;12.50;99.90;;;12.01;100.00;96677.72;4973078;28;20544;-39
2022/09/16 04:27:06;;;;;;;4.93;1.80;;;12.50;99.90;;;11.96;100.00;96671.00;4965047;28;20082;-39
2022/09/16 04:29:31;;;;;;;3.45;2.20;;;12.50;99.90;;;12.03;100.00;96667.94;4971195;28;20030;-39
2022/09/16 04:31:57;;;;;;;6.65;2.30;;;12.50;99.90;;;12.04;100.00;96668.78;4974099;28;20120;-39
2022/09/16 04:34:23;;;;;;;5.75;2.10;;;12.50;99.90;;;12.06;100.00;96664.28;4972082;28;20092;-39
2022/09/16 04:36:49;;;;;;;3.60;2.00;;;12.50;99.90;;;12.09;100.00;96665.88;4969494;28;20034;-39
2022/09/16 04:39:14;;;;;;;2.70;1.90;;;12.50;99.90;;;12.11;100.00;96667.50;4973462;28;20037;-39
2022/09/16 04:41:40;;;;;;;14.95;2.47;;;12.60;99.90;;;12.12;100.00;96665.72;4969519;28;20038;-39
2022/09/16 04:44:06;;;;;;;2.15;1.85;;;12.50;99.90;;;12.14;100.00;96679.72;4963817;28;20038;-39
2022/09/16 04:46:32;;;;;;;3.38;2.15;;;12.60;99.90;;;12.15;100.00;96671.69;4964433;28;20041;-40
2022/09/16 04:48:58;;;;;;;4.68;1.98;;;12.60;99.90;;;12.16;100.00;96665.47;4972662;28;20043;-40
2022/09/16 04:51:26;;;;;;;4.07;1.80;;;12.60;99.90;;;12.14;100.00;96667.34;4967995;28;20041;-40
2022/09/16 04:53:54;;;;;;;3.10;2.28;;;12.60;99.90;;;12.11;100.00;96672.78;4975234;28;20022;-40
2022/09/16 04:56:25;;;;;;;8.02;2.58;;;12.60;99.90;;;12.13;100.00;96681.50;4964531;28;20068;-40
2022/09/16 04:58:54;;;;;;;11.95;2.40;;;12.60;99.90;;;12.13;100.00;96680.63;4975769;28;20101;-40
2022/09/16 05:01:23;;;;;;;4.10;2.25;;;12.60;99.90;;;12.12;100.00;96677.16;4955552;28;20069;-40
2022/09/16 05:03:52;;;;;;;4.38;2.17;;;12.60;99.90;;;12.11;100.00;96679.88;4968987;28;20038;-40
2022/09/16 05:06:22;;;;;;;6.50;2.00;;;12.60;99.90;;;12.09;100.00;96679.09;4971378;28;20553;-40
2022/09/16 05:08:49;;;;;;;4.78;2.05;;;12.50;99.90;;;12.05;100.00;96678.41;4975816;28;20034;-40
2022/09/16 05:11:22;;;;;;;7.80;1.92;;;12.50;99.90;;;11.99;100.00;96681.41;4974408;28;20121;-40
2022/09/16 05:13:47;;;;;;;;;;;12.50;99.90;;;11.97;100.00;96684.13;4973895;28;20463;-40
2022/09/16 05:16:17;;;;;;;10.43;2.42;;;12.40;99.90;;;11.98;100.00;96693.75;4977033;28;19928;-40
2022/09/16 05:18:45;;;;;;;3.05;1.90;;;12.40;99.90;;;11.98;100.00;96688.47;4978884;28;20056;-40
2022/09/16 05:21:17;;;;;;;5.68;1.95;;;12.40;99.90;;;11.99;100.00;96679.59;4977888;28;20037;-40
2022/09/16 05:23:43;;;;;;;2.55;1.90;;;12.50;99.90;;;12.00;100.00;96678.66;4976624;28;20027;-40
2022/09/16 05:26:21;;;;;;;5.50;2.10;;;12.50;99.90;;;12.02;100.00;96679.44;4977300;28;20050;-40
2022/09/16 05:28:49;;;;;;;5.63;2.30;;;12.50;99.90;;;12.02;100.00;96679.44;4977481;28;20034;-40
2022/09/16 05:31:26;;;;;;;4.30;2.70;;;12.50;99.90;;;12.02;100.00;96689.16;4971257;28;20585;-40
2022/09/16 05:34:17;;;;;;;4.75;2.53;;;12.50;99.90;;;12.03;100.00;96677.66;4979022;28;20474;-40
2022/09/16 05:36:46;;;;;;;3.40;2.55;;;12.50;99.90;;;12.07;100.00;96683.63;4975090;28;20818;-40
2022/09/16 05:39:12;;;;;;;3.55;2.60;;;12.50;99.90;;;11.99;100.00;96676.97;4978080;28;20041;-41
2022/09/16 05:41:38;;;;;;;3.33;2.50;;;12.50;99.90;;;12.02;100.00;96676.81;4968679;28;20026;-41
2022/09/16 05:44:07;;;;;;;5.95;2.80;;;12.50;99.90;;;12.07;100.00;96680.97;4969862;28;21870;-41
2022/09/16 05:46:34;;;;;;;5.75;3.30;;;12.50;99.90;;;12.01;100.00;96683.00;4971127;28;20108;-41
2022/09/16 05:49:00;;;;;;;4.78;2.90;;;12.50;99.90;;;12.06;100.00;96689.84;4981437;28;20061;-41
2022/09/16 05:51:26;;;;;;;6.80;3.65;;;12.50;99.90;;;12.00;100.00;96681.28;4977128;28;20034;-40
2022/09/16 05:53:53;;;;;;;8.43;3.08;;;12.50;99.90;;;12.04;100.00;96689.91;4955511;28;20038;-40
2022/09/16 05:56:25;;;;;;;3.28;2.22;;;12.50;99.90;;;12.00;100.00;96678.66;4959731;28;20046;-41
2022/09/16 05:58:58;;;;;;;3.53;2.20;;;12.50;99.90;;;12.10;100.00;96686.09;4978723;28;20034;-40
2022/09/16 06:01:27;;;;;;;4.13;2.55;;;12.50;99.90;;;12.09;100.00;96689.69;4955966;28;20034;-40
2022/09/16 06:03:54;;;;;;;7.45;3.17;;;12.50;99.90;;;12.09;100.00;96685.22;4973865;28;20374;-40
2022/09/16 06:06:22;;;;;;;5.35;2.50;;;12.50;99.90;;;12.12;100.00;96694.81;4973489;28;20130;-40
2022/09/16 06:08:48;;;;;;;6.95;2.90;;;12.60;99.90;;;12.12;100.00;96703.56;4973357;28;20041;-40
2022/09/16 06:11:14;;;;;;;3.03;2.30;;;12.60;99.90;;;12.12;100.00;96700.94;4980051;28;20031;-40
2022/09/16 06:13:40;;;;;;;3.85;2.45;;;12.60;99.90;;;12.11;100.00;96693.94;4968764;28;20557;-41
2022/09/16 06:16:07;;;;;;;5.28;2.65;;;12.60;99.90;;;12.08;100.00;96696.75;4969688;28;20043;-40
2022/09/16 06:18:33;;;;;;;5.28;2.88;;;12.50;99.90;;;12.03;100.00;96693.50;4973484;28;20038;-41
2022/09/16 06:21:10;;;;;;;5.53;3.00;;;12.50;99.90;;;12.00;100.00;96697.16;4977263;28;20120;-40
2022/09/16 06:23:38;;;;;;;4.63;2.58;;;12.50;99.90;;;12.01;100.00;96698.03;4975807;28;20035;-40
2022/09/16 06:26:14;;;;;;;4.68;2.53;;;12.50;99.90;;;11.99;100.00;96692.81;4972526;28;20505;-40
2022/09/16 06:28:40;;;;;;;2.67;2.40;;;12.50;99.90;;;12.06;100.00;96708.34;4980030;28;20038;-40
2022/09/16 06:31:11;;;;;;;6.22;2.90;;;12.50;99.90;;;12.07;100.00;96699.47;4965213;28;20031;-40
2022/09/16 06:33:38;;;;;;;3.70;2.95;;;12.50;99.90;;;12.09;100.00;96697.59;4973358;28;20076;-40
2022/09/16 06:36:16;;;;;;;4.40;2.88;;;12.50;99.90;;;12.12;100.00;96702.72;4958459;28;20046;-40
2022/09/16 06:38:43;;;;;;;4.28;2.67;;;12.60;99.90;;;12.05;100.00;96690.78;4966822;28;20397;-41
2022/09/16 06:41:11;;;;;;;5.93;3.38;;;12.60;99.90;;;12.09;100.00;96706.38;4959172;28;20022;-40
2022/09/16 06:43:38;;;;;;;5.03;3.42;;;12.60;99.90;;;12.06;100.00;96701.28;4966442;28;20026;-40
2022/09/16 06:46:16;;;;;;;4.60;3.00;;;12.50;99.90;;;12.03;100.00;96707.56;4971955;28;20423;-40
2022/09/16 06:48:49;;;;;;;8.55;3.35;;;12.50;99.90;;;12.03;100.00;96712.84;4962064;28;20061;-41
2022/09/16 06:51:27;;;;;;;4.68;2.63;;;12.50;99.90;;;12.03;100.00;96715.50;4978679;28;20062;-41
2022/09/16 06:53:57;;;;;;;7.40;2.80;;;12.50;99.90;;;11.98;100.00;96708.75;4975516;28;20042;-41
2022/09/16 06:56:23;;;;;;;7.78;3.05;;;12.50;99.90;;;11.95;100.00;96704.50;4974123;28;20061;-41
2022/09/16 06:58:52;;;;;;;6.95;2.60;;;12.50;99.90;;;11.98;100.00;96711.41;4971782;28;20045;-40
2022/09/16 07:01:21;;;;;;;3.75;2.60;;;12.40;99.90;;;11.99;100.00;96706.03;4971795;28;20533;-40
2022/09/16 07:03:50;;;;;;;6.20;2.80;;;12.50;99.90;;;12.03;100.00;96712.84;4973409;28;20038;-40
2022/09/16 07:06:18;;;;;;;5.30;2.67;;;12.50;99.90;;;12.04;100.00;96703.13;4977486;28;20026;-40
2022/09/16 07:08:45;;;;;;;5.53;3.03;;;12.50;99.90;;;12.09;100.00;96716.09;4968375;28;20110;-40
2022/09/16 07:11:17;;;;;;;4.95;2.97;;;12.50;99.90;;;12.10;100.00;96716.03;4976258;28;20118;-40
2022/09/16 07:13:48;;;;;;;4.85;2.88;;;12.50;99.90;;;12.11;100.00;96727.44;4972388;28;20030;-39
2022/09/16 07:16:21;;;;;;;5.13;2.65;;;12.50;99.90;;;12.11;100.00;96720.34;4973521;28;20038;-41
2022/09/16 07:18:47;;;;;;;7.68;3.22;;;12.50;99.90;;;12.12;100.00;96719.44;4972914;28;20577;-41
2022/09/16 07:21:18;;;;;;;5.88;3.83;;;12.50;99.90;;;12.12;100.00;96715.94;4971723;28;20414;-41
2022/09/16 07:23:45;;;;;;;6.18;3.35;;;12.60;99.90;;;12.13;100.00;96712.34;4970537;28;20482;-41
2022/09/16 07:26:18;;;;;;;8.85;3.80;;;12.50;99.90;;;11.97;100.00;96709.69;4979956;28;20043;-41
2022/09/16 07:28:46;;;;;;;9.13;3.15;;;12.50;99.90;;;11.94;100.00;96723.91;4973267;28;20030;-42
2022/09/16 07:31:18;;;;;;;4.20;3.08;;;12.50;99.90;;;12.03;100.00;96730.50;4975382;28;20536;-40
2022/09/16 07:33:47;;;;;;;7.45;3.55;;;12.50;99.90;;;11.95;100.00;96725.63;4970850;28;20038;-42
2022/09/16 07:36:16;;;;;;;5.53;3.58;;;12.40;99.90;;;11.97;100.00;96723.75;4964892;28;20038;-41
2022/09/16 07:38:42;;;;;;;6.38;3.15;;;12.40;99.90;;;12.06;100.00;96718.91;4975055;28;20418;-41
2022/09/16 07:41:16;;;;;;;7.22;3.50;;;12.50;99.90;;;12.20;100.00;96719.00;4974669;28;20896;-41
2022/09/16 07:43:43;;;;;;;7.22;3.97;;;12.60;99.90;;;12.29;100.00;96728.22;4972362;28;20729;-41
2022/09/16 07:46:11;;;;;;;6.18;3.90;;;12.70;99.90;;;12.29;100.00;96736.16;4967002;28;20477;-41
2022/09/16 07:48:38;;;;;;;8.85;4.22;;;12.70;99.90;;;12.23;100.00;96738.19;4969247;28;20058;-42
2022/09/16 07:51:09;;;;;;;5.43;3.10;;;12.70;99.90;;;12.15;100.00;96724.56;4964280;28;20034;-42
2022/09/16 07:53:35;;;;;;;7.38;3.13;;;12.60;99.90;;;12.15;100.00;96726.34;4971450;28;20109;-42
2022/09/16 07:56:11;;;;;;;4.95;2.78;;;12.60;99.90;;;12.15;100.00;96731.63;4975369;28;20045;-42
2022/09/16 07:58:39;;;;;;;8.43;4.25;;;12.70;99.90;;;12.20;100.00;96748.09;4969013;28;20049;-42
2022/09/16 08:01:06;;;;;;;5.72;3.45;;;12.60;99.90;;;12.20;100.00;96753.38;4971161;28;20042;-42
2022/09/16 08:03:34;;;;;;;6.20;3.60;;;12.60;99.90;;;12.19;100.00;96749.88;4972945;28;20118;-42
2022/09/16 08:06:02;;;;;;;5.13;3.40;;;12.60;99.90;;;12.20;100.00;96746.31;4975129;28;20042;-42
2022/09/16 08:08:29;;;;;;;6.22;3.90;;;12.70;99.90;;;12.30;100.00;96732.59;4960188;28;20030;-41
2022/09/16 08:10:56;;;;;;;8.93;4.53;;;12.70;99.90;;;12.44;100.00;96735.34;4976172;28;20141;-40
2022/09/16 08:13:22;;;;;;;7.30;4.20;;;12.90;99.90;;;12.65;100.00;96741.25;4975535;28;20034;-42
2022/09/16 08:15:48;;;;;;;4.82;3.25;;;13.10;99.90;;;12.78;100.00;96733.47;4970045;28;20529;-42
2022/09/16 08:18:14;;;;;;;9.15;3.65;;;13.30;99.90;;;12.88;100.00;96736.44;4966002;28;20023;-41
2022/09/16 08:20:39;;;;;;;10.10;4.55;;;13.40;99.90;;;12.97;100.00;96746.50;4975186;28;20975;-42
2022/09/16 08:23:05;;;;;;;7.63;4.13;;;13.50;99.90;;;13.02;100.00;96748.88;4976679;28;20578;-40
2022/09/16 08:25:31;;;;;;;5.00;2.95;;;13.50;99.90;;;13.08;100.00;96757.34;4970240;28;20422;-42
2022/09/16 08:27:57;;;;;;;6.43;3.88;;;13.50;99.90;;;13.15;100.00;96750.75;4973471;28;20031;-40
2022/09/16 08:30:23;;;;;;;8.15;4.07;;;13.60;99.90;;;13.22;100.00;96760.97;4967926;28;20049;-40
2022/09/16 08:32:56;;;;;;;4.45;3.08;;;13.70;99.90;;;13.29;100.00;96762.31;4969834;28;20557;-41
2022/09/16 08:35:22;;;;;;;10.98;3.92;;;13.70;99.90;;;13.27;100.00;96754.47;4956978;28;20034;-39
2022/09/16 08:37:48;;;;;;;4.88;4.00;;;13.80;99.90;;;13.25;100.00;96756.34;4968729;28;20034;-40
2022/09/16 08:40:17;;;;;;;5.15;3.78;;;13.80;99.90;;;13.25;100.00;96758.16;4975322;28;20478;-41
2022/09/16 08:43:13;;;;;;;7.03;3.80;;;13.80;99.90;;;13.20;100.00;96755.75;4960701;28;20041;-41
2022/09/16 08:45:55;;;;;;;8.40;3.83;;;13.80;99.90;;;13.26;100.00;96767.78;4978599;28;20054;-41
2022/09/16 08:51:16;;;;;;;8.33;4.17;;;13.80;99.90;;;13.39;100.00;96781.19;4974303;28;20046;-39
2022/09/16 08:54:08;;;;;;;7.85;4.20;;;13.80;99.90;;;13.34;100.00;96784.97;4960035;28;20030;-39
2022/09/16 08:56:36;;;;;;;4.10;2.95;;;13.90;99.90;;;13.45;100.00;96783.50;4960181;28;20030;-39
2022/09/16 08:59:09;;;;;;;5.93;3.38;;;13.90;99.90;;;13.56;100.00;96771.31;4948524;28;20042;-39
2022/09/16 09:01:47;;;;;;;5.55;3.08;;;14.00;99.90;;;13.71;100.00;96769.59;4969375;28;20064;-39
2022/09/16 09:04:13;;;;;;;9.38;3.70;;;14.20;99.90;;;13.86;100.00;96778.41;4987706;28;20033;-39
2022/09/16 09:07:18;;;;;;;5.40;3.60;;;14.30;99.90;;;14.09;100.00;96770.88;4981764;28;20049;-39
2022/09/16 09:10:26;;;;;;;4.82;2.97;;;14.50;99.90;;;14.15;100.00;96767.84;4983624;28;20048;-39
2022/09/16 09:13:13;;;;;;;6.80;3.17;;;14.60;99.90;;;14.21;100.00;96764.81;4971411;28;20125;-38
2022/09/16 09:16:11;;;;;;;3.63;2.50;;;14.70;99.90;;;14.22;100.00;96773.63;4967998;28;20108;-39
2022/09/16 09:19:06;;;;;;;6.72;2.92;;;14.70;99.90;;;14.10;100.00;96769.91;4966548;28;20041;-39
2022/09/16 09:21:47;;;;;;;7.20;3.20;;;14.60;99.90;;;14.08;100.00;96771.81;4985167;28;20088;-39
2022/09/16 09:24:57;;;;;;;3.90;2.65;;;14.50;99.90;;;14.02;100.00;96772.19;4980186;28;20038;-39
2022/09/16 09:27:27;;;;;;;5.50;2.75;;;14.50;99.90;;;14.00;100.00;96772.28;4985593;28;20741;-39
2022/09/16 09:30:24;;;;;;;4.18;2.40;;;14.40;99.90;;;13.99;100.00;96762.59;4969311;28;20363;-39
2022/09/16 09:33:27;;;;;;;5.55;3.05;;;14.40;99.90;;;14.00;100.00;96759.03;4984853;28;20104;-39
2022/09/16 09:36:22;;;;;;;5.72;2.65;;;14.40;99.90;;;14.04;100.00;96757.03;4986871;28;20045;-39
2022/09/16 09:39:05;;;;;;;5.03;2.72;;;14.50;99.90;;;14.07;100.00;96765.66;4980762;28;20041;-39
2022/09/16 09:41:40;;;;;;;;;;;14.50;99.90;;;14.13;100.00;96762.63;4983151;28;20494;-39
2022/09/16 09:44:58;;;;;;;5.35;3.15;;;14.60;99.90;;;14.18;100.00;96761.50;4988915;28;19917;-39
2022/09/16 09:47:37;;;;;;;5.80;2.80;;;14.60;99.90;;;14.35;100.00;96771.06;4977030;28;20129;-39
2022/09/16 09:50:19;;;;;;;8.45;3.50;;;14.80;99.90;;;14.43;100.00;96771.44;4981856;28;20034;-39
2022/09/16 09:53:11;;;;;;;4.13;2.72;;;14.90;99.90;;;14.66;100.00;96757.59;4967213;28;20378;-39
2022/09/16 09:55:40;;;;;;;5.03;3.35;;;15.00;99.90;;;14.68;100.00;96752.22;4976856;28;20042;-39
2022/09/16 09:58:20;;;;;;;5.03;3.17;;;15.10;99.90;;;14.75;100.00;96758.81;4987957;28;20278;-39
2022/09/16 10:00:46;;;;;;;4.50;2.70;;;15.10;99.90;;;14.71;100.00;96757.28;4962758;28;20091;-39
2022/09/16 10:03:17;;;;;;;4.78;2.45;;;15.10;99.90;;;14.65;100.00;96770.97;4982377;28;20129;-39
2022/09/16 10:05:45;;;;;;;7.05;2.70;;;15.10;99.90;;;14.58;100.00;96762.53;4983201;28;20033;-39
2022/09/16 10:08:24;;;;;;;4.30;2.28;;;15.00;99.90;;;14.47;100.00;96767.66;4977022;28;20054;-39
2022/09/16 10:10:59;;;;;;;6.35;2.83;;;14.90;99.90;;;14.24;100.00;96767.25;4957842;28;20165;-39
2022/09/16 10:13:28;;;;;;;5.63;2.60;;;14.80;99.90;;;14.20;100.00;96757.78;4981906;28;20470;-39
2022/09/16 10:16:13;;;;;;;4.35;2.50;;;14.60;99.90;;;14.11;100.00;96767.16;4968829;28;20089;-39
2022/09/16 10:18:39;;;;;;;4.65;2.33;;;14.60;99.90;;;14.05;100.00;96764.91;4959867;28;20089;-40
2022/09/16 10:21:13;;;;;;;4.68;2.65;;;14.50;99.90;;;13.96;100.00;96761.94;4971983;28;20070;-40
2022/09/16 10:23:39;;;;;;;7.80;2.90;;;14.40;99.90;;;13.83;100.00;96767.13;4955210;28;20042;-39
2022/09/16 10:26:19;;;;;;;5.07;2.60;;;14.30;99.90;;;13.77;100.00;96770.16;4985357;28;20435;-40
2022/09/16 10:29:00;;;;;;;7.40;3.40;;;14.20;99.90;;;13.73;100.00;96767.69;4979552;28;20031;-40
2022/09/16 10:31:36;;;;;;;5.57;2.90;;;14.20;99.90;;;13.56;100.00;96760.72;4978034;28;20034;-39
2022/09/16 10:34:04;;;;;;;5.55;3.00;;;14.10;99.90;;;13.48;100.00;96757.69;4974585;28;20041;-39
2022/09/16 10:36:34;;;;;;;3.95;2.55;;;14.00;99.90;;;13.57;100.00;96745.72;4974049;28;20026;-39
2022/09/16 10:39:02;;;;;;;4.15;2.53;;;14.00;99.90;;;13.66;100.00;96749.59;4980537;28;20034;-39
2022/09/16 10:41:48;;;;;;;3.17;2.50;;;14.10;99.90;;;13.80;100.00;96746.97;4963881;28;20065;-39
2022/09/16 10:44:26;;;;;;;4.25;2.78;;;14.30;99.90;;;13.99;100.00;96753.81;4982752;28;20032;-39